sensor_id;sensor_type;location;lat;lon;timestamp;P1;durP1;ratioP1;P2;durP2;ratioP2
22922;SDS011;11627;51.322;22.816;2023-04-25T00:02:09;20.15;;;11.82;;
22922;SDS011;11627;51.322;22.816;2023-04-25T00:04:38;29.80;;;12.38;;
22922;SDS011;11627;51.322;22.816;2023-04-25T00:07:04;24.00;;;12.65;;
22922;SDS011;11627;51.322;22.816;2023-04-25T00:09:31;32.33;;;13.38;;
22922;SDS011;11627;51.322;22.816;2023-04-25T00:11:57;23.83;;;13.45;;
22922;SDS011;11627;51.322;22.816;2023-04-25T00:14:24;19.42;;;11.57;;
22922;SDS011;11627;51.322;22.816;2023-04-25T00:16:52;20.45;;;11.98;;
22922;SDS011;11627;51.322;22.816;2023-04-25T00:19:20;22.63;;;13.18;;
22922;SDS011;11627;51.322;22.816;2023-04-25T00:21:47;25.38;;;13.05;;
22922;SDS011;11627;51.322;22.816;2023-04-25T00:24:14;24.75;;;13.32;;
22922;SDS011;11627;51.322;22.816;2023-04-25T00:26:41;20.45;;;12.05;;
22922;SDS011;11627;51.322;22.816;2023-04-25T00:29:07;23.50;;;13.15;;
22922;SDS011;11627;51.322;22.816;2023-04-25T00:31:33;22.67;;;12.00;;
22922;SDS011;11627;51.322;22.816;2023-04-25T00:34:00;23.88;;;11.55;;
22922;SDS011;11627;51.322;22.816;2023-04-25T00:36:27;24.67;;;12.93;;
22922;SDS011;11627;51.322;22.816;2023-04-25T00:38:53;20.27;;;11.80;;
22922;SDS011;11627;51.322;22.816;2023-04-25T00:41:21;21.25;;;11.48;;
22922;SDS011;11627;51.322;22.816;2023-04-25T00:43:48;18.90;;;11.15;;
22922;SDS011;11627;51.322;22.816;2023-04-25T00:46:16;19.83;;;11.20;;
22922;SDS011;11627;51.322;22.816;2023-04-25T00:48:42;20.80;;;11.48;;
22922;SDS011;11627;51.322;22.816;2023-04-25T00:51:13;18.02;;;11.70;;
22922;SDS011;11627;51.322;22.816;2023-04-25T00:53:44;20.23;;;11.57;;
22922;SDS011;11627;51.322;22.816;2023-04-25T00:56:13;16.60;;;11.48;;
22922;SDS011;11627;51.322;22.816;2023-04-25T00:58:40;19.73;;;11.40;;
22922;SDS011;11627;51.322;22.816;2023-04-25T01:01:08;22.90;;;11.63;;
22922;SDS011;11627;51.322;22.816;2023-04-25T01:03:37;19.77;;;12.07;;
22922;SDS011;11627;51.322;22.816;2023-04-25T01:06:12;18.83;;;12.30;;
22922;SDS011;11627;51.322;22.816;2023-04-25T01:08:39;20.85;;;12.65;;
22922;SDS011;11627;51.322;22.816;2023-04-25T01:11:05;20.08;;;12.50;;
22922;SDS011;11627;51.322;22.816;2023-04-25T01:13:31;20.42;;;12.07;;
22922;SDS011;11627;51.322;22.816;2023-04-25T01:15:59;17.67;;;12.10;;
22922;SDS011;11627;51.322;22.816;2023-04-25T01:18:26;19.17;;;12.18;;
22922;SDS011;11627;51.322;22.816;2023-04-25T01:20:52;22.98;;;12.10;;
22922;SDS011;11627;51.322;22.816;2023-04-25T01:23:20;19.42;;;12.20;;
22922;SDS011;11627;51.322;22.816;2023-04-25T01:25:47;18.20;;;11.65;;
22922;SDS011;11627;51.322;22.816;2023-04-25T01:28:14;19.17;;;11.63;;
22922;SDS011;11627;51.322;22.816;2023-04-25T01:30:40;18.50;;;11.35;;
22922;SDS011;11627;51.322;22.816;2023-04-25T01:33:07;16.67;;;12.02;;
22922;SDS011;11627;51.322;22.816;2023-04-25T01:35:33;18.67;;;11.73;;
22922;SDS011;11627;51.322;22.816;2023-04-25T01:38:01;17.90;;;11.52;;
22922;SDS011;11627;51.322;22.816;2023-04-25T01:40:26;17.80;;;11.82;;
22922;SDS011;11627;51.322;22.816;2023-04-25T01:42:53;17.90;;;11.90;;
22922;SDS011;11627;51.322;22.816;2023-04-25T01:45:19;16.23;;;11.57;;
22922;SDS011;11627;51.322;22.816;2023-04-25T01:47:46;19.48;;;11.98;;
22922;SDS011;11627;51.322;22.816;2023-04-25T01:50:16;17.70;;;11.80;;
22922;SDS011;11627;51.322;22.816;2023-04-25T01:52:43;17.20;;;11.73;;
22922;SDS011;11627;51.322;22.816;2023-04-25T01:55:11;17.83;;;11.32;;
22922;SDS011;11627;51.322;22.816;2023-04-25T01:57:39;17.75;;;10.98;;
22922;SDS011;11627;51.322;22.816;2023-04-25T02:00:06;19.38;;;11.68;;
22922;SDS011;11627;51.322;22.816;2023-04-25T02:02:34;19.30;;;10.90;;
22922;SDS011;11627;51.322;22.816;2023-04-25T02:05:01;17.90;;;11.02;;
22922;SDS011;11627;51.322;22.816;2023-04-25T02:07:27;15.73;;;10.35;;
22922;SDS011;11627;51.322;22.816;2023-04-25T02:09:53;19.35;;;11.23;;
22922;SDS011;11627;51.322;22.816;2023-04-25T02:12:19;18.02;;;10.80;;
22922;SDS011;11627;51.322;22.816;2023-04-25T02:14:46;19.33;;;11.68;;
22922;SDS011;11627;51.322;22.816;2023-04-25T02:17:11;22.15;;;11.00;;
22922;SDS011;11627;51.322;22.816;2023-04-25T02:19:39;19.65;;;10.48;;
22922;SDS011;11627;51.322;22.816;2023-04-25T02:22:04;19.23;;;10.88;;
22922;SDS011;11627;51.322;22.816;2023-04-25T02:24:31;19.95;;;11.18;;
22922;SDS011;11627;51.322;22.816;2023-04-25T02:26:58;22.45;;;11.77;;
22922;SDS011;11627;51.322;22.816;2023-04-25T02:29:25;20.17;;;12.40;;
22922;SDS011;11627;51.322;22.816;2023-04-25T02:31:52;17.42;;;11.68;;
22922;SDS011;11627;51.322;22.816;2023-04-25T02:34:18;20.05;;;11.55;;
22922;SDS011;11627;51.322;22.816;2023-04-25T02:36:44;20.98;;;11.95;;
22922;SDS011;11627;51.322;22.816;2023-04-25T02:39:10;22.40;;;12.20;;
22922;SDS011;11627;51.322;22.816;2023-04-25T02:41:37;23.05;;;11.82;;
22922;SDS011;11627;51.322;22.816;2023-04-25T02:44:03;21.60;;;12.63;;
22922;SDS011;11627;51.322;22.816;2023-04-25T02:46:30;21.98;;;13.30;;
22922;SDS011;11627;51.322;22.816;2023-04-25T02:48:57;21.30;;;12.05;;
22922;SDS011;11627;51.322;22.816;2023-04-25T02:51:23;19.58;;;12.13;;
22922;SDS011;11627;51.322;22.816;2023-04-25T02:53:49;24.00;;;12.63;;
22922;SDS011;11627;51.322;22.816;2023-04-25T02:56:16;20.00;;;11.80;;
22922;SDS011;11627;51.322;22.816;2023-04-25T02:58:42;19.45;;;11.57;;
22922;SDS011;11627;51.322;22.816;2023-04-25T03:01:07;20.70;;;11.90;;
22922;SDS011;11627;51.322;22.816;2023-04-25T03:03:33;21.02;;;13.10;;
22922;SDS011;11627;51.322;22.816;2023-04-25T03:06:00;22.92;;;13.57;;
22922;SDS011;11627;51.322;22.816;2023-04-25T03:08:26;20.13;;;12.77;;
22922;SDS011;11627;51.322;22.816;2023-04-25T03:10:57;24.15;;;12.52;;
22922;SDS011;11627;51.322;22.816;2023-04-25T03:13:23;25.67;;;12.52;;
22922;SDS011;11627;51.322;22.816;2023-04-25T03:15:49;22.40;;;11.75;;
22922;SDS011;11627;51.322;22.816;2023-04-25T03:18:15;22.27;;;11.80;;
22922;SDS011;11627;51.322;22.816;2023-04-25T03:20:40;24.55;;;13.25;;
22922;SDS011;11627;51.322;22.816;2023-04-25T03:23:06;24.98;;;12.90;;
22922;SDS011;11627;51.322;22.816;2023-04-25T03:25:34;22.02;;;12.43;;
22922;SDS011;11627;51.322;22.816;2023-04-25T03:28:00;25.70;;;12.57;;
22922;SDS011;11627;51.322;22.816;2023-04-25T03:30:27;19.30;;;12.25;;
22922;SDS011;11627;51.322;22.816;2023-04-25T03:32:54;24.35;;;12.23;;
22922;SDS011;11627;51.322;22.816;2023-04-25T03:35:20;20.05;;;11.70;;
22922;SDS011;11627;51.322;22.816;2023-04-25T03:37:47;20.30;;;12.32;;
22922;SDS011;11627;51.322;22.816;2023-04-25T03:40:14;21.30;;;12.52;;
22922;SDS011;11627;51.322;22.816;2023-04-25T03:42:41;18.52;;;12.15;;
22922;SDS011;11627;51.322;22.816;2023-04-25T03:45:07;21.67;;;12.65;;
22922;SDS011;11627;51.322;22.816;2023-04-25T03:47:36;24.63;;;13.18;;
22922;SDS011;11627;51.322;22.816;2023-04-25T03:50:03;20.83;;;12.85;;
22922;SDS011;11627;51.322;22.816;2023-04-25T03:52:29;22.23;;;12.85;;
22922;SDS011;11627;51.322;22.816;2023-04-25T03:54:56;26.77;;;14.20;;
22922;SDS011;11627;51.322;22.816;2023-04-25T03:57:23;21.58;;;13.77;;
22922;SDS011;11627;51.322;22.816;2023-04-25T03:59:49;23.95;;;14.32;;
22922;SDS011;11627;51.322;22.816;2023-04-25T04:02:15;19.85;;;13.23;;
22922;SDS011;11627;51.322;22.816;2023-04-25T04:04:42;21.90;;;14.18;;
22922;SDS011;11627;51.322;22.816;2023-04-25T04:07:09;22.13;;;14.50;;
22922;SDS011;11627;51.322;22.816;2023-04-25T04:09:37;22.13;;;14.00;;
22922;SDS011;11627;51.322;22.816;2023-04-25T04:12:06;20.95;;;14.60;;
22922;SDS011;11627;51.322;22.816;2023-04-25T04:14:37;23.95;;;14.85;;
22922;SDS011;11627;51.322;22.816;2023-04-25T04:17:04;24.83;;;14.32;;
22922;SDS011;11627;51.322;22.816;2023-04-25T04:19:31;19.35;;;13.70;;
22922;SDS011;11627;51.322;22.816;2023-04-25T04:21:57;19.10;;;13.95;;
22922;SDS011;11627;51.322;22.816;2023-04-25T04:24:23;20.40;;;13.07;;
22922;SDS011;11627;51.322;22.816;2023-04-25T04:26:50;19.10;;;12.60;;
22922;SDS011;11627;51.322;22.816;2023-04-25T04:29:17;28.55;;;12.55;;
22922;SDS011;11627;51.322;22.816;2023-04-25T04:31:50;18.02;;;12.75;;
22922;SDS011;11627;51.322;22.816;2023-04-25T04:34:17;19.55;;;13.18;;
22922;SDS011;11627;51.322;22.816;2023-04-25T04:36:45;19.75;;;13.02;;
22922;SDS011;11627;51.322;22.816;2023-04-25T04:39:12;18.20;;;12.52;;
22922;SDS011;11627;51.322;22.816;2023-04-25T04:41:38;18.30;;;12.55;;
22922;SDS011;11627;51.322;22.816;2023-04-25T04:44:05;16.52;;;12.30;;
22922;SDS011;11627;51.322;22.816;2023-04-25T04:46:32;16.65;;;12.40;;
22922;SDS011;11627;51.322;22.816;2023-04-25T04:49:07;19.88;;;12.70;;
22922;SDS011;11627;51.322;22.816;2023-04-25T04:51:35;18.15;;;12.48;;
22922;SDS011;11627;51.322;22.816;2023-04-25T04:54:03;17.50;;;11.70;;
22922;SDS011;11627;51.322;22.816;2023-04-25T04:56:29;17.05;;;12.45;;
22922;SDS011;11627;51.322;22.816;2023-04-25T04:58:59;16.92;;;12.57;;
22922;SDS011;11627;51.322;22.816;2023-04-25T05:01:28;15.40;;;12.00;;
22922;SDS011;11627;51.322;22.816;2023-04-25T05:03:56;15.02;;;11.57;;
22922;SDS011;11627;51.322;22.816;2023-04-25T05:06:27;16.08;;;10.95;;
22922;SDS011;11627;51.322;22.816;2023-04-25T05:08:54;16.17;;;11.25;;
22922;SDS011;11627;51.322;22.816;2023-04-25T05:11:21;15.15;;;10.77;;
22922;SDS011;11627;51.322;22.816;2023-04-25T05:13:47;15.32;;;9.98;;
22922;SDS011;11627;51.322;22.816;2023-04-25T05:16:13;18.25;;;11.00;;
22922;SDS011;11627;51.322;22.816;2023-04-25T05:18:39;21.38;;;11.73;;
22922;SDS011;11627;51.322;22.816;2023-04-25T05:21:06;20.38;;;11.48;;
22922;SDS011;11627;51.322;22.816;2023-04-25T05:23:35;18.63;;;11.30;;
22922;SDS011;11627;51.322;22.816;2023-04-25T05:26:01;12.40;;;10.13;;
22922;SDS011;11627;51.322;22.816;2023-04-25T05:28:27;14.23;;;11.30;;
22922;SDS011;11627;51.322;22.816;2023-04-25T05:30:53;14.80;;;11.30;;
22922;SDS011;11627;51.322;22.816;2023-04-25T05:33:18;14.98;;;10.98;;
22922;SDS011;11627;51.322;22.816;2023-04-25T05:35:44;14.95;;;10.77;;
22922;SDS011;11627;51.322;22.816;2023-04-25T05:38:12;18.65;;;10.70;;
22922;SDS011;11627;51.322;22.816;2023-04-25T05:40:39;17.77;;;11.20;;
22922;SDS011;11627;51.322;22.816;2023-04-25T05:43:07;15.60;;;10.73;;
22922;SDS011;11627;51.322;22.816;2023-04-25T05:45:32;16.45;;;11.93;;
22922;SDS011;11627;51.322;22.816;2023-04-25T05:47:58;17.05;;;11.85;;
22922;SDS011;11627;51.322;22.816;2023-04-25T05:50:24;15.90;;;11.93;;
22922;SDS011;11627;51.322;22.816;2023-04-25T05:52:50;19.05;;;12.02;;
22922;SDS011;11627;51.322;22.816;2023-04-25T05:55:17;18.15;;;13.25;;
22922;SDS011;11627;51.322;22.816;2023-04-25T05:57:43;18.45;;;12.35;;
22922;SDS011;11627;51.322;22.816;2023-04-25T06:00:12;17.13;;;13.02;;
22922;SDS011;11627;51.322;22.816;2023-04-25T06:02:40;18.92;;;13.07;;
22922;SDS011;11627;51.322;22.816;2023-04-25T06:05:05;21.38;;;14.63;;
22922;SDS011;11627;51.322;22.816;2023-04-25T06:07:31;21.85;;;14.18;;
22922;SDS011;11627;51.322;22.816;2023-04-25T06:09:57;22.95;;;13.98;;
22922;SDS011;11627;51.322;22.816;2023-04-25T06:12:28;17.27;;;13.88;;
22922;SDS011;11627;51.322;22.816;2023-04-25T06:14:58;18.63;;;13.68;;
22922;SDS011;11627;51.322;22.816;2023-04-25T06:17:24;21.10;;;13.77;;
22922;SDS011;11627;51.322;22.816;2023-04-25T06:19:50;18.63;;;13.27;;
22922;SDS011;11627;51.322;22.816;2023-04-25T06:22:18;20.02;;;13.15;;
22922;SDS011;11627;51.322;22.816;2023-04-25T06:24:44;16.67;;;11.60;;
22922;SDS011;11627;51.322;22.816;2023-04-25T06:27:10;18.52;;;13.38;;
22922;SDS011;11627;51.322;22.816;2023-04-25T06:29:38;26.10;;;12.02;;
22922;SDS011;11627;51.322;22.816;2023-04-25T06:32:03;17.55;;;11.25;;
22922;SDS011;11627;51.322;22.816;2023-04-25T06:34:29;21.23;;;11.45;;
22922;SDS011;11627;51.322;22.816;2023-04-25T06:36:55;16.20;;;11.00;;
22922;SDS011;11627;51.322;22.816;2023-04-25T06:39:21;18.85;;;11.68;;
22922;SDS011;11627;51.322;22.816;2023-04-25T06:41:49;15.90;;;11.15;;
22922;SDS011;11627;51.322;22.816;2023-04-25T06:44:17;14.77;;;10.68;;
22922;SDS011;11627;51.322;22.816;2023-04-25T06:46:43;17.65;;;11.70;;
22922;SDS011;11627;51.322;22.816;2023-04-25T06:49:09;19.10;;;12.25;;
22922;SDS011;11627;51.322;22.816;2023-04-25T06:51:36;16.80;;;12.68;;
22922;SDS011;11627;51.322;22.816;2023-04-25T06:54:03;15.82;;;12.02;;
22922;SDS011;11627;51.322;22.816;2023-04-25T06:56:30;27.15;;;14.10;;
22922;SDS011;11627;51.322;22.816;2023-04-25T06:58:57;21.42;;;13.38;;
22922;SDS011;11627;51.322;22.816;2023-04-25T07:01:27;21.48;;;14.90;;
22922;SDS011;11627;51.322;22.816;2023-04-25T07:03:54;23.20;;;15.07;;
22922;SDS011;11627;51.322;22.816;2023-04-25T07:06:20;24.15;;;15.98;;
22922;SDS011;11627;51.322;22.816;2023-04-25T07:08:45;23.05;;;14.25;;
22922;SDS011;11627;51.322;22.816;2023-04-25T07:11:12;19.92;;;14.63;;
22922;SDS011;11627;51.322;22.816;2023-04-25T07:13:39;21.17;;;14.10;;
22922;SDS011;11627;51.322;22.816;2023-04-25T07:16:06;27.77;;;14.93;;
22922;SDS011;11627;51.322;22.816;2023-04-25T07:18:33;19.92;;;13.75;;
22922;SDS011;11627;51.322;22.816;2023-04-25T07:21:02;26.55;;;14.32;;
22922;SDS011;11627;51.322;22.816;2023-04-25T07:23:29;21.83;;;13.90;;
22922;SDS011;11627;51.322;22.816;2023-04-25T07:25:55;21.20;;;14.43;;
22922;SDS011;11627;51.322;22.816;2023-04-25T07:28:21;24.27;;;14.93;;
22922;SDS011;11627;51.322;22.816;2023-04-25T07:30:48;22.55;;;15.05;;
22922;SDS011;11627;51.322;22.816;2023-04-25T07:33:16;21.95;;;15.15;;
22922;SDS011;11627;51.322;22.816;2023-04-25T07:35:45;23.83;;;16.38;;
22922;SDS011;11627;51.322;22.816;2023-04-25T07:38:12;21.80;;;14.20;;
22922;SDS011;11627;51.322;22.816;2023-04-25T07:40:39;19.10;;;14.02;;
22922;SDS011;11627;51.322;22.816;2023-04-25T07:43:06;17.98;;;13.70;;
22922;SDS011;11627;51.322;22.816;2023-04-25T07:45:31;20.42;;;13.18;;
22922;SDS011;11627;51.322;22.816;2023-04-25T07:47:57;22.38;;;12.65;;
22922;SDS011;11627;51.322;22.816;2023-04-25T07:50:23;16.10;;;11.15;;
22922;SDS011;11627;51.322;22.816;2023-04-25T07:52:50;13.63;;;10.77;;
22922;SDS011;11627;51.322;22.816;2023-04-25T07:55:16;16.25;;;10.80;;
22922;SDS011;11627;51.322;22.816;2023-04-25T07:57:43;14.68;;;10.73;;
22922;SDS011;11627;51.322;22.816;2023-04-25T08:00:11;13.52;;;10.40;;
22922;SDS011;11627;51.322;22.816;2023-04-25T08:02:38;13.02;;;10.40;;
22922;SDS011;11627;51.322;22.816;2023-04-25T08:05:04;13.57;;;10.57;;
22922;SDS011;11627;51.322;22.816;2023-04-25T08:07:30;10.55;;;8.07;;
22922;SDS011;11627;51.322;22.816;2023-04-25T08:09:55;9.73;;;7.55;;
22922;SDS011;11627;51.322;22.816;2023-04-25T08:12:21;8.60;;;7.00;;
22922;SDS011;11627;51.322;22.816;2023-04-25T08:14:47;9.93;;;7.28;;
22922;SDS011;11627;51.322;22.816;2023-04-25T08:17:13;10.70;;;7.10;;
22922;SDS011;11627;51.322;22.816;2023-04-25T08:19:39;9.38;;;6.70;;
22922;SDS011;11627;51.322;22.816;2023-04-25T08:22:04;12.77;;;9.65;;
22922;SDS011;11627;51.322;22.816;2023-04-25T08:24:32;13.13;;;10.45;;
22922;SDS011;11627;51.322;22.816;2023-04-25T08:26:57;11.15;;;7.85;;
22922;SDS011;11627;51.322;22.816;2023-04-25T08:29:25;10.88;;;7.20;;
22922;SDS011;11627;51.322;22.816;2023-04-25T08:31:52;7.60;;;6.72;;
22922;SDS011;11627;51.322;22.816;2023-04-25T08:34:19;9.10;;;7.20;;
22922;SDS011;11627;51.322;22.816;2023-04-25T08:36:46;9.10;;;7.53;;
22922;SDS011;11627;51.322;22.816;2023-04-25T08:39:16;9.27;;;7.22;;
22922;SDS011;11627;51.322;22.816;2023-04-25T08:41:42;11.20;;;7.72;;
22922;SDS011;11627;51.322;22.816;2023-04-25T08:44:10;9.55;;;7.35;;
22922;SDS011;11627;51.322;22.816;2023-04-25T08:46:40;9.32;;;7.53;;
22922;SDS011;11627;51.322;22.816;2023-04-25T08:49:06;9.68;;;7.50;;
22922;SDS011;11627;51.322;22.816;2023-04-25T08:51:36;8.75;;;6.85;;
22922;SDS011;11627;51.322;22.816;2023-04-25T08:54:12;7.18;;;6.45;;
22922;SDS011;11627;51.322;22.816;2023-04-25T08:56:41;9.63;;;7.05;;
22922;SDS011;11627;51.322;22.816;2023-04-25T08:59:11;11.00;;;7.00;;
22922;SDS011;11627;51.322;22.816;2023-04-25T09:01:37;17.83;;;10.93;;
22922;SDS011;11627;51.322;22.816;2023-04-25T09:04:05;13.50;;;9.75;;
22922;SDS011;11627;51.322;22.816;2023-04-25T09:06:31;10.30;;;8.48;;
22922;SDS011;11627;51.322;22.816;2023-04-25T09:09:04;10.05;;;7.32;;
22922;SDS011;11627;51.322;22.816;2023-04-25T09:11:32;7.85;;;6.80;;
22922;SDS011;11627;51.322;22.816;2023-04-25T09:19:42;12.23;;;7.63;;
22922;SDS011;11627;51.322;22.816;2023-04-25T09:22:12;11.00;;;7.43;;
22922;SDS011;11627;51.322;22.816;2023-04-25T09:24:42;9.38;;;7.50;;
22922;SDS011;11627;51.322;22.816;2023-04-25T09:27:10;10.88;;;7.43;;
22922;SDS011;11627;51.322;22.816;2023-04-25T09:29:43;9.63;;;7.00;;
22922;SDS011;11627;51.322;22.816;2023-04-25T09:34:41;12.55;;;8.63;;
22922;SDS011;11627;51.322;22.816;2023-04-25T09:37:09;12.68;;;9.00;;
22922;SDS011;11627;51.322;22.816;2023-04-25T09:39:37;9.63;;;7.43;;
22922;SDS011;11627;51.322;22.816;2023-04-25T09:42:04;11.00;;;8.30;;
22922;SDS011;11627;51.322;22.816;2023-04-25T09:44:31;13.75;;;10.40;;
22922;SDS011;11627;51.322;22.816;2023-04-25T09:46:57;16.92;;;9.43;;
22922;SDS011;11627;51.322;22.816;2023-04-25T09:49:24;12.25;;;8.27;;
22922;SDS011;11627;51.322;22.816;2023-04-25T09:51:58;10.15;;;7.90;;
22922;SDS011;11627;51.322;22.816;2023-04-25T09:54:26;10.38;;;8.52;;
22922;SDS011;11627;51.322;22.816;2023-04-25T09:56:52;11.90;;;7.97;;
22922;SDS011;11627;51.322;22.816;2023-04-25T09:59:19;11.65;;;7.90;;
22922;SDS011;11627;51.322;22.816;2023-04-25T10:01:49;12.40;;;8.40;;
22922;SDS011;11627;51.322;22.816;2023-04-25T10:04:24;11.25;;;8.10;;
22922;SDS011;11627;51.322;22.816;2023-04-25T10:06:53;8.60;;;7.65;;
22922;SDS011;11627;51.322;22.816;2023-04-25T10:09:21;10.70;;;7.82;;
22922;SDS011;11627;51.322;22.816;2023-04-25T10:11:51;9.13;;;8.15;;
22922;SDS011;11627;51.322;22.816;2023-04-25T10:14:23;11.57;;;9.18;;
22922;SDS011;11627;51.322;22.816;2023-04-25T10:16:53;11.90;;;8.65;;
22922;SDS011;11627;51.322;22.816;2023-04-25T10:19:21;10.88;;;8.45;;
22922;SDS011;11627;51.322;22.816;2023-04-25T10:21:52;11.20;;;7.88;;
22922;SDS011;11627;51.322;22.816;2023-04-25T10:24:40;13.05;;;7.97;;
22922;SDS011;11627;51.322;22.816;2023-04-25T10:27:10;10.40;;;7.93;;
22922;SDS011;11627;51.322;22.816;2023-04-25T10:29:36;10.20;;;8.27;;
22922;SDS011;11627;51.322;22.816;2023-04-25T10:32:02;11.13;;;8.23;;
22922;SDS011;11627;51.322;22.816;2023-04-25T10:34:40;10.43;;;8.07;;
22922;SDS011;11627;51.322;22.816;2023-04-25T10:37:11;9.32;;;8.20;;
22922;SDS011;11627;51.322;22.816;2023-04-25T10:39:43;11.60;;;8.65;;
22922;SDS011;11627;51.322;22.816;2023-04-25T10:42:10;8.50;;;7.40;;
22922;SDS011;11627;51.322;22.816;2023-04-25T10:44:38;9.00;;;7.70;;
22922;SDS011;11627;51.322;22.816;2023-04-25T10:47:06;10.85;;;7.35;;
22922;SDS011;11627;51.322;22.816;2023-04-25T10:49:35;12.60;;;8.63;;
22922;SDS011;11627;51.322;22.816;2023-04-25T10:52:19;9.38;;;7.95;;
22922;SDS011;11627;51.322;22.816;2023-04-25T10:54:57;10.65;;;7.80;;
22922;SDS011;11627;51.322;22.816;2023-04-25T11:00:01;10.77;;;8.70;;
22922;SDS011;11627;51.322;22.816;2023-04-25T11:02:46;11.18;;;7.68;;
22922;SDS011;11627;51.322;22.816;2023-04-25T11:05:28;9.90;;;7.45;;
22922;SDS011;11627;51.322;22.816;2023-04-25T11:07:59;10.18;;;7.53;;
22922;SDS011;11627;51.322;22.816;2023-04-25T11:10:26;9.80;;;7.88;;
22922;SDS011;11627;51.322;22.816;2023-04-25T11:12:54;10.50;;;9.05;;
22922;SDS011;11627;51.322;22.816;2023-04-25T11:15:26;11.65;;;8.73;;
22922;SDS011;11627;51.322;22.816;2023-04-25T11:17:55;13.68;;;8.88;;
22922;SDS011;11627;51.322;22.816;2023-04-25T11:20:22;26.23;;;20.48;;
22922;SDS011;11627;51.322;22.816;2023-04-25T11:22:51;29.48;;;20.50;;
22922;SDS011;11627;51.322;22.816;2023-04-25T11:25:16;15.88;;;11.60;;
22922;SDS011;11627;51.322;22.816;2023-04-25T11:27:56;10.32;;;8.60;;
22922;SDS011;11627;51.322;22.816;2023-04-25T11:30:23;18.70;;;8.50;;
22922;SDS011;11627;51.322;22.816;2023-04-25T11:32:51;12.25;;;8.48;;
22922;SDS011;11627;51.322;22.816;2023-04-25T11:35:20;10.88;;;8.27;;
22922;SDS011;11627;51.322;22.816;2023-04-25T11:37:48;12.85;;;8.57;;
22922;SDS011;11627;51.322;22.816;2023-04-25T11:40:15;10.25;;;8.70;;
22922;SDS011;11627;51.322;22.816;2023-04-25T11:42:45;12.60;;;8.25;;
22922;SDS011;11627;51.322;22.816;2023-04-25T11:45:13;9.57;;;8.25;;
22922;SDS011;11627;51.322;22.816;2023-04-25T11:47:40;11.23;;;8.57;;
22922;SDS011;11627;51.322;22.816;2023-04-25T11:50:06;11.38;;;8.50;;
22922;SDS011;11627;51.322;22.816;2023-04-25T11:52:35;10.05;;;8.95;;
22922;SDS011;11627;51.322;22.816;2023-04-25T11:55:01;11.63;;;8.95;;
22922;SDS011;11627;51.322;22.816;2023-04-25T11:57:39;11.63;;;9.27;;
22922;SDS011;11627;51.322;22.816;2023-04-25T12:00:17;11.75;;;9.10;;
22922;SDS011;11627;51.322;22.816;2023-04-25T12:02:46;10.32;;;8.57;;
22922;SDS011;11627;51.322;22.816;2023-04-25T12:05:19;11.95;;;8.85;;
22922;SDS011;11627;51.322;22.816;2023-04-25T12:07:52;12.90;;;8.73;;
22922;SDS011;11627;51.322;22.816;2023-04-25T12:10:18;13.38;;;9.00;;
22922;SDS011;11627;51.322;22.816;2023-04-25T12:12:45;12.98;;;9.13;;
22922;SDS011;11627;51.322;22.816;2023-04-25T12:15:24;11.65;;;8.90;;
22922;SDS011;11627;51.322;22.816;2023-04-25T12:17:51;9.85;;;8.40;;
22922;SDS011;11627;51.322;22.816;2023-04-25T12:20:23;10.88;;;8.63;;
22922;SDS011;11627;51.322;22.816;2023-04-25T12:22:50;12.82;;;8.63;;
22922;SDS011;11627;51.322;22.816;2023-04-25T12:28:22;12.65;;;9.00;;
22922;SDS011;11627;51.322;22.816;2023-04-25T12:33:33;12.02;;;8.90;;
22922;SDS011;11627;51.322;22.816;2023-04-25T12:36:00;10.65;;;7.93;;
22922;SDS011;11627;51.322;22.816;2023-04-25T12:38:35;12.80;;;8.27;;
22922;SDS011;11627;51.322;22.816;2023-04-25T12:41:06;9.18;;;7.43;;
22922;SDS011;11627;51.322;22.816;2023-04-25T12:43:32;9.98;;;7.45;;
22922;SDS011;11627;51.322;22.816;2023-04-25T12:46:00;7.40;;;6.60;;
22922;SDS011;11627;51.322;22.816;2023-04-25T12:48:29;10.43;;;7.35;;
22922;SDS011;11627;51.322;22.816;2023-04-25T12:50:57;8.18;;;7.35;;
22922;SDS011;11627;51.322;22.816;2023-04-25T12:53:23;9.30;;;8.10;;
22922;SDS011;11627;51.322;22.816;2023-04-25T12:55:49;9.68;;;7.82;;
22922;SDS011;11627;51.322;22.816;2023-04-25T12:58:17;10.10;;;8.30;;
22922;SDS011;11627;51.322;22.816;2023-04-25T13:00:45;10.85;;;8.23;;
22922;SDS011;11627;51.322;22.816;2023-04-25T13:03:13;10.38;;;7.88;;
22922;SDS011;11627;51.322;22.816;2023-04-25T13:05:39;10.90;;;8.57;;
22922;SDS011;11627;51.322;22.816;2023-04-25T13:08:06;12.95;;;7.75;;
22922;SDS011;11627;51.322;22.816;2023-04-25T13:10:33;7.78;;;6.13;;
22922;SDS011;11627;51.322;22.816;2023-04-25T13:13:02;10.93;;;6.80;;
22922;SDS011;11627;51.322;22.816;2023-04-25T13:15:28;8.90;;;5.45;;
22922;SDS011;11627;51.322;22.816;2023-04-25T13:17:53;9.73;;;6.65;;
22922;SDS011;11627;51.322;22.816;2023-04-25T13:20:21;13.02;;;7.55;;
22922;SDS011;11627;51.322;22.816;2023-04-25T13:22:47;10.43;;;7.22;;
22922;SDS011;11627;51.322;22.816;2023-04-25T13:25:15;8.20;;;6.80;;
22922;SDS011;11627;51.322;22.816;2023-04-25T13:27:42;7.97;;;6.18;;
22922;SDS011;11627;51.322;22.816;2023-04-25T13:30:11;6.53;;;5.78;;
22922;SDS011;11627;51.322;22.816;2023-04-25T13:32:37;8.02;;;5.97;;
22922;SDS011;11627;51.322;22.816;2023-04-25T13:35:06;7.00;;;5.75;;
22922;SDS011;11627;51.322;22.816;2023-04-25T13:37:34;8.57;;;6.30;;
22922;SDS011;11627;51.322;22.816;2023-04-25T13:40:01;6.15;;;5.13;;
22922;SDS011;11627;51.322;22.816;2023-04-25T13:42:36;5.97;;;5.25;;
22922;SDS011;11627;51.322;22.816;2023-04-25T13:45:03;5.80;;;4.72;;
22922;SDS011;11627;51.322;22.816;2023-04-25T13:47:29;5.70;;;5.15;;
22922;SDS011;11627;51.322;22.816;2023-04-25T13:49:56;7.13;;;5.13;;
22922;SDS011;11627;51.322;22.816;2023-04-25T13:52:22;6.68;;;5.13;;
22922;SDS011;11627;51.322;22.816;2023-04-25T13:54:51;7.25;;;6.35;;
22922;SDS011;11627;51.322;22.816;2023-04-25T13:57:18;10.23;;;6.70;;
22922;SDS011;11627;51.322;22.816;2023-04-25T13:59:45;8.23;;;6.78;;
22922;SDS011;11627;51.322;22.816;2023-04-25T14:02:11;9.80;;;7.50;;
22922;SDS011;11627;51.322;22.816;2023-04-25T14:04:41;11.50;;;8.43;;
22922;SDS011;11627;51.322;22.816;2023-04-25T14:07:09;10.70;;;9.05;;
22922;SDS011;11627;51.322;22.816;2023-04-25T14:09:36;12.32;;;10.10;;
22922;SDS011;11627;51.322;22.816;2023-04-25T14:12:02;13.00;;;10.60;;
22922;SDS011;11627;51.322;22.816;2023-04-25T14:14:29;13.88;;;11.35;;
22922;SDS011;11627;51.322;22.816;2023-04-25T14:16:54;15.00;;;11.25;;
22922;SDS011;11627;51.322;22.816;2023-04-25T14:19:22;13.45;;;11.73;;
22922;SDS011;11627;51.322;22.816;2023-04-25T14:21:49;13.38;;;11.43;;
22922;SDS011;11627;51.322;22.816;2023-04-25T14:24:15;15.85;;;12.23;;
22922;SDS011;11627;51.322;22.816;2023-04-25T14:26:41;15.43;;;12.57;;
22922;SDS011;11627;51.322;22.816;2023-04-25T14:29:08;15.18;;;12.80;;
22922;SDS011;11627;51.322;22.816;2023-04-25T14:31:37;15.20;;;13.20;;
22922;SDS011;11627;51.322;22.816;2023-04-25T14:34:04;18.00;;;14.63;;
22922;SDS011;11627;51.322;22.816;2023-04-25T14:36:32;17.92;;;15.02;;